createdAt,value
2022-10-25T00:01:48.398Z,52.88
2022-10-25T00:04:18.824Z,53.83
2022-10-25T00:06:49.103Z,50.55
2022-10-25T00:09:18.432Z,51.03
2022-10-25T00:11:48.194Z,52.53
2022-10-25T00:14:20.115Z,51.92
2022-10-25T00:16:49.338Z,50.63
2022-10-25T00:19:19.421Z,53.10
2022-10-25T00:21:48.906Z,50.72
2022-10-25T00:24:18.442Z,52.45
2022-10-25T00:26:47.688Z,52.83
2022-10-25T00:29:18.102Z,52.92
2022-10-25T00:31:47.462Z,55.83
2022-10-25T00:34:17.161Z,54.45
2022-10-25T00:36:46.418Z,52.75
2022-10-25T00:39:15.622Z,51.08
2022-10-25T00:41:44.952Z,51.92
2022-10-25T00:44:41.740Z,50.92
2022-10-25T00:47:35.961Z,51.22
2022-10-25T00:50:27.161Z,50.20
2022-10-25T00:53:00.732Z,50.00
2022-10-25T00:55:30.794Z,53.60
2022-10-25T00:58:07.024Z,50.08
2022-10-25T01:00:37.320Z,53.55
2022-10-25T01:03:07.646Z,50.38
2022-10-25T01:05:38.218Z,50.38
2022-10-25T01:08:08.475Z,53.58
2022-10-25T01:10:37.991Z,53.67
2022-10-25T01:13:07.486Z,52.70
2022-10-25T01:15:51.325Z,52.25
2022-10-25T01:18:30.881Z,53.83
2022-10-25T01:21:40.359Z,49.83
2022-10-25T01:24:31.065Z,49.40
2022-10-25T01:27:14.995Z,49.42
2022-10-25T01:30:07.903Z,47.65
2022-10-25T01:33:00.768Z,46.42
2022-10-25T01:35:33.568Z,48.58
2022-10-25T01:38:10.484Z,46.45
2022-10-25T01:40:49.334Z,48.47
2022-10-25T01:43:27.055Z,59.85
2022-10-25T01:46:13.992Z,53.05
2022-10-25T01:48:50.930Z,51.45
2022-10-25T01:51:20.664Z,47.47
2022-10-25T01:53:53.479Z,46.30
2022-10-25T01:59:12.297Z,45.17
2022-10-25T02:02:09.213Z,44.42
2022-10-25T02:04:59.635Z,47.35
2022-10-25T02:07:48.780Z,45.70
2022-10-25T02:10:32.092Z,43.42
2022-10-25T02:13:54.627Z,44.20
2022-10-25T02:16:29.167Z,42.00
2022-10-25T02:19:04.024Z,40.05
2022-10-25T02:21:36.567Z,40.95
2022-10-25T02:24:13.778Z,40.33
2022-10-25T02:26:44.930Z,39.88
2022-10-25T02:29:19.225Z,38.97
2022-10-25T02:31:49.130Z,39.88
2022-10-25T02:34:21.508Z,39.30
2022-10-25T02:36:53.084Z,41.42
2022-10-25T02:39:27.805Z,40.75
2022-10-25T02:41:59.918Z,40.78
2022-10-25T02:44:29.274Z,41.03
2022-10-25T02:46:59.813Z,40.45
2022-10-25T02:49:31.203Z,42.22
2022-10-25T02:52:00.558Z,40.55
2022-10-25T02:54:29.962Z,38.67
2022-10-25T02:56:59.315Z,44.20
2022-10-25T02:59:28.716Z,41.13
2022-10-25T03:01:58.158Z,43.65
2022-10-25T03:04:27.576Z,69.18
2022-10-25T03:06:59.056Z,67.78
2022-10-25T03:09:28.751Z,38.63
2022-10-25T03:11:58.208Z,63.30
2022-10-25T03:14:27.567Z,61.22
2022-10-25T03:16:56.898Z,51.25
2022-10-25T03:19:26.259Z,37.60
2022-10-25T03:21:55.737Z,37.65
2022-10-25T03:24:25.144Z,39.28
2022-10-25T03:26:55.443Z,38.80
2022-10-25T03:29:24.982Z,38.30
2022-10-25T03:31:54.411Z,38.97
2022-10-25T03:34:23.818Z,38.65
2022-10-25T03:36:53.857Z,39.05
2022-10-25T03:39:25.572Z,38.88
2022-10-25T03:41:54.922Z,41.05
2022-10-25T03:44:24.366Z,44.40
2022-10-25T03:46:53.796Z,36.55
2022-10-25T03:49:30.063Z,33.65
2022-10-25T03:52:02.794Z,35.22
2022-10-25T03:54:34.667Z,34.53
2022-10-25T03:57:04.524Z,36.75
2022-10-25T03:59:34.317Z,37.28
2022-10-25T04:02:04.137Z,34.50
2022-10-25T04:04:33.687Z,38.58
2022-10-25T04:07:03.050Z,38.83
2022-10-25T04:09:32.468Z,39.17
2022-10-25T04:12:01.874Z,35.60
2022-10-25T04:14:31.200Z,37.08
2022-10-25T04:17:02.378Z,33.55
2022-10-25T04:19:32.069Z,34.67
2022-10-25T04:22:04.218Z,34.72
2022-10-25T04:24:34.049Z,33.22
2022-10-25T04:27:04.408Z,32.90
2022-10-25T04:29:34.883Z,34.45
2022-10-25T04:32:04.175Z,33.72
2022-10-25T04:34:33.458Z,33.38
2022-10-25T04:37:02.928Z,33.35
2022-10-25T04:39:32.303Z,34.00
2022-10-25T04:42:02.277Z,33.40
2022-10-25T04:44:31.731Z,34.55
2022-10-25T04:47:01.020Z,31.15
2022-10-25T04:49:31.351Z,30.00
2022-10-25T04:52:00.796Z,33.13
2022-10-25T04:54:30.097Z,31.92
2022-10-25T04:56:59.473Z,33.97
2022-10-25T04:59:29.106Z,36.75
2022-10-25T05:01:58.485Z,35.65
2022-10-25T05:04:27.745Z,35.33
2022-10-25T05:06:58.775Z,31.05
2022-10-25T05:09:28.165Z,30.13
2022-10-25T05:11:57.584Z,29.55
2022-10-25T05:14:27.084Z,33.45
2022-10-25T05:16:56.403Z,33.55
2022-10-25T05:19:25.794Z,29.88
2022-10-25T05:21:55.248Z,30.02
2022-10-25T05:24:25.762Z,29.83
2022-10-25T05:27:10.160Z,29.60
2022-10-25T05:29:39.493Z,27.50
2022-10-25T05:32:08.978Z,31.45
2022-10-25T05:34:38.421Z,31.05
2022-10-25T05:37:07.807Z,29.02
2022-10-25T05:39:37.211Z,29.10
2022-10-25T05:42:08.051Z,29.48
2022-10-25T05:44:37.375Z,28.40
2022-10-25T05:47:06.882Z,27.98
2022-10-25T05:49:41.112Z,29.65
2022-10-25T05:52:11.677Z,27.00
2022-10-25T05:54:43.179Z,28.17
2022-10-25T05:57:12.399Z,28.30
2022-10-25T05:59:41.872Z,27.25
2022-10-25T06:02:12.308Z,27.42
2022-10-25T06:04:41.790Z,28.63
2022-10-25T06:07:11.114Z,27.55
2022-10-25T06:09:40.470Z,28.23
2022-10-25T06:12:10.080Z,31.02
2022-10-25T06:14:39.373Z,28.98
2022-10-25T06:17:08.680Z,28.05
2022-10-25T06:19:38.093Z,28.83
2022-10-25T06:22:07.481Z,37.47
2022-10-25T06:24:37.818Z,28.85
2022-10-25T06:27:07.443Z,29.42
2022-10-25T06:29:37.792Z,29.02
2022-10-25T06:32:07.362Z,32.55
2022-10-25T06:34:36.763Z,29.95
2022-10-25T06:37:06.476Z,29.30
2022-10-25T06:39:35.905Z,29.40
2022-10-25T06:42:05.269Z,30.05
2022-10-25T06:44:34.574Z,29.77
2022-10-25T06:47:16.922Z,29.60
2022-10-25T06:49:48.258Z,28.90
2022-10-25T06:52:17.650Z,30.00
2022-10-25T06:54:46.969Z,30.67
2022-10-25T06:57:16.246Z,28.92
2022-10-25T06:59:47.634Z,31.38
2022-10-25T07:02:20.912Z,31.15
2022-10-25T07:04:50.435Z,29.55
2022-10-25T07:07:22.539Z,28.38
2022-10-25T07:09:52.311Z,30.75
2022-10-25T07:12:21.878Z,28.50
2022-10-25T07:14:51.276Z,30.13
2022-10-25T07:17:20.807Z,28.50
2022-10-25T07:19:50.616Z,29.15
2022-10-25T07:22:21.066Z,30.73
2022-10-25T07:24:50.626Z,30.67
2022-10-25T07:27:20.089Z,30.83
2022-10-25T07:29:50.306Z,31.45
2022-10-25T07:32:19.616Z,31.50
2022-10-25T07:34:49.205Z,29.02
2022-10-25T07:37:18.639Z,29.00
2022-10-25T07:39:48.161Z,30.15
2022-10-25T07:42:17.491Z,31.48
2022-10-25T07:44:52.851Z,30.92
2022-10-25T07:47:22.310Z,30.70
2022-10-25T07:49:51.660Z,30.52
2022-10-25T07:52:21.916Z,28.77
2022-10-25T07:54:51.280Z,30.20
2022-10-25T07:57:20.558Z,29.63
2022-10-25T07:59:49.894Z,30.23
2022-10-25T08:02:22.980Z,31.33
2022-10-25T08:04:55.514Z,30.17
2022-10-25T08:07:25.032Z,29.75
2022-10-25T08:09:54.338Z,31.02
2022-10-25T08:12:26.363Z,29.83
2022-10-25T08:14:56.053Z,29.45
2022-10-25T08:17:26.535Z,32.22
2022-10-25T08:19:55.992Z,33.08
2022-10-25T08:22:25.686Z,31.98
2022-10-25T08:24:54.992Z,29.80
2022-10-25T08:27:24.430Z,31.98
2022-10-25T08:29:53.937Z,29.08
2022-10-25T08:32:26.108Z,31.45
2022-10-25T08:34:56.401Z,29.10
2022-10-25T08:37:25.815Z,30.85
2022-10-25T08:39:56.287Z,30.90
2022-10-25T08:42:42.344Z,29.75
2022-10-25T08:45:19.007Z,41.17
2022-10-25T08:47:50.912Z,32.17
2022-10-25T08:50:27.678Z,33.10
2022-10-25T08:53:03.642Z,37.10
2022-10-25T08:55:44.571Z,33.25
2022-10-25T08:58:30.120Z,31.42
2022-10-25T09:01:03.589Z,31.83
2022-10-25T09:03:33.180Z,30.58
2022-10-25T09:06:22.880Z,31.60
2022-10-25T09:08:59.487Z,32.78
2022-10-25T09:12:07.996Z,29.80
2022-10-25T09:15:01.190Z,34.03
2022-10-25T09:17:38.363Z,32.05
2022-10-25T09:20:22.083Z,31.77
2022-10-25T09:22:58.764Z,32.67
2022-10-25T09:25:51.902Z,34.10
2022-10-25T09:31:03.813Z,30.67
2022-10-25T09:33:41.804Z,36.15
2022-10-25T09:36:12.364Z,32.67
2022-10-25T09:38:54.725Z,32.03
2022-10-25T09:41:49.218Z,43.20
2022-10-25T09:44:28.042Z,31.40
2022-10-25T09:47:04.548Z,29.50
2022-10-25T09:49:45.607Z,28.10
2022-10-25T09:52:26.330Z,29.85
2022-10-25T09:55:17.172Z,27.80
2022-10-25T09:57:47.807Z,36.45
2022-10-25T10:00:18.051Z,36.45
2022-10-25T10:02:47.610Z,33.38
2022-10-25T10:05:19.558Z,35.75
2022-10-25T10:07:52.335Z,31.90
2022-10-25T10:15:40.575Z,26.85
2022-10-25T10:18:33.580Z,27.35
2022-10-25T10:21:26.501Z,26.33
2022-10-25T10:24:06.852Z,25.88
2022-10-25T10:26:47.051Z,26.77
2022-10-25T10:29:23.374Z,27.20
2022-10-25T10:31:55.345Z,33.03
2022-10-25T10:34:45.580Z,37.10
2022-10-25T10:37:17.129Z,38.97
2022-10-25T10:40:10.411Z,37.63
2022-10-25T10:42:44.214Z,39.05
2022-10-25T10:45:16.846Z,35.97
2022-10-25T10:47:52.556Z,35.70
2022-10-25T10:50:31.926Z,37.50
2022-10-25T10:53:34.293Z,36.10
2022-10-25T10:56:07.493Z,42.13
2022-10-25T10:58:40.723Z,42.13
2022-10-25T11:01:12.414Z,43.03
2022-10-25T11:03:58.765Z,43.97
2022-10-25T11:06:33.665Z,44.22
2022-10-25T11:09:25.336Z,43.83
2022-10-25T11:12:13.002Z,44.35
2022-10-25T11:14:42.495Z,50.90
2022-10-25T11:17:21.237Z,42.25
2022-10-25T11:20:10.691Z,41.05
2022-10-25T11:22:49.247Z,41.63
2022-10-25T11:25:34.196Z,38.45
2022-10-25T11:28:05.399Z,34.63
2022-10-25T11:30:42.453Z,32.53
2022-10-25T11:33:36.607Z,32.70
2022-10-25T11:36:15.901Z,29.05
2022-10-25T11:39:05.218Z,30.65
2022-10-25T11:41:58.438Z,29.45
2022-10-25T11:44:39.779Z,26.48
2022-10-25T11:47:34.648Z,25.48
2022-10-25T11:50:43.067Z,25.27
2022-10-25T11:53:28.507Z,24.92
2022-10-25T11:56:08.876Z,24.60
2022-10-25T11:58:44.770Z,23.33
2022-10-25T12:01:34.124Z,24.42
2022-10-25T12:04:28.403Z,25.13
2022-10-25T12:07:23.278Z,23.95
2022-10-25T12:10:16.108Z,21.60
2022-10-25T12:12:48.341Z,24.38
2022-10-25T12:15:25.206Z,20.45
2022-10-25T12:17:55.410Z,20.30
2022-10-25T12:20:29.058Z,20.60
2022-10-25T12:23:03.091Z,21.05
2022-10-25T12:25:37.278Z,22.15
2022-10-25T12:28:17.546Z,21.60
2022-10-25T12:30:47.424Z,22.40
2022-10-25T12:33:45.595Z,24.20
2022-10-25T12:36:26.374Z,30.20
2022-10-25T12:38:56.944Z,30.88
2022-10-25T12:41:31.220Z,25.20
2022-10-25T12:44:21.560Z,25.60
2022-10-25T12:47:22.198Z,26.65
2022-10-25T12:49:55.957Z,28.10
2022-10-25T12:52:32.746Z,27.13
2022-10-25T12:55:27.711Z,25.13
2022-10-25T12:58:27.004Z,24.90
2022-10-25T13:01:16.330Z,25.52
2022-10-25T13:04:09.229Z,24.65
2022-10-25T13:06:41.783Z,25.10
2022-10-25T13:09:14.818Z,28.00
2022-10-25T13:11:50.389Z,25.98
2022-10-25T13:14:39.567Z,25.90
2022-10-25T13:17:25.271Z,29.33
2022-10-25T13:19:56.205Z,26.40
2022-10-25T13:22:37.607Z,26.52
2022-10-25T13:25:16.247Z,27.13
2022-10-25T13:28:21.443Z,27.83
2022-10-25T13:30:50.766Z,28.13
2022-10-25T13:33:23.977Z,26.67
2022-10-25T13:35:54.212Z,26.77
2022-10-25T13:38:27.103Z,28.48
2022-10-25T13:41:18.792Z,28.65
2022-10-25T13:44:05.484Z,27.77
2022-10-25T13:46:43.147Z,30.42
2022-10-25T13:49:34.452Z,30.13
2022-10-25T13:52:20.859Z,28.85
2022-10-25T13:54:55.538Z,29.67
2022-10-25T13:57:46.933Z,27.15
2022-10-25T14:00:24.422Z,28.33
2022-10-25T14:03:14.564Z,26.75
2022-10-25T14:06:03.899Z,24.08
2022-10-25T14:08:42.861Z,25.75
2022-10-25T14:11:21.196Z,25.40
2022-10-25T14:14:13.993Z,24.55
2022-10-25T14:16:48.668Z,21.73
2022-10-25T14:19:29.044Z,24.50
2022-10-25T14:21:58.686Z,22.83
2022-10-25T14:24:28.481Z,23.95
2022-10-25T14:27:00.681Z,25.08
2022-10-25T14:29:31.385Z,23.45
2022-10-25T14:32:01.008Z,22.27
2022-10-25T14:34:31.611Z,22.10
2022-10-25T14:37:01.086Z,21.10
2022-10-25T14:39:32.500Z,20.92
2022-10-25T14:42:03.570Z,19.67
2022-10-25T14:44:54.978Z,21.70
2022-10-25T14:47:33.961Z,19.77
2022-10-25T14:50:04.118Z,18.95
2022-10-25T14:52:33.585Z,19.67
2022-10-25T14:55:06.881Z,19.08
2022-10-25T14:57:37.639Z,19.23
2022-10-25T15:00:07.892Z,19.80
2022-10-25T15:02:41.329Z,18.85
2022-10-25T15:05:20.195Z,17.52
2022-10-25T15:07:51.046Z,18.30
2022-10-25T15:10:42.532Z,16.48
2022-10-25T15:13:17.797Z,20.63
2022-10-25T15:15:49.413Z,20.50
2022-10-25T15:18:38.898Z,20.35
2022-10-25T15:21:17.792Z,20.27
2022-10-25T15:24:23.517Z,19.88
2022-10-25T15:27:01.307Z,21.50
2022-10-25T15:32:25.739Z,21.92
2022-10-25T15:34:57.475Z,17.98
2022-10-25T15:37:28.353Z,19.70
2022-10-25T15:39:59.064Z,19.17
2022-10-25T15:42:28.682Z,18.48
2022-10-25T15:44:58.011Z,15.93
2022-10-25T15:47:34.646Z,18.45
2022-10-25T15:50:07.145Z,17.08
2022-10-25T15:52:36.384Z,15.52
2022-10-25T15:55:20.941Z,15.10
2022-10-25T15:57:50.909Z,15.30
2022-10-25T16:00:25.720Z,14.63
2022-10-25T16:02:57.818Z,13.98
2022-10-25T16:05:30.533Z,15.25
2022-10-25T16:10:31.249Z,17.88
2022-10-25T16:13:05.387Z,29.20
2022-10-25T16:15:35.222Z,14.70
2022-10-25T16:18:04.886Z,14.65
2022-10-25T16:20:34.426Z,15.18
2022-10-25T16:23:03.711Z,13.55
2022-10-25T16:25:33.313Z,14.00
2022-10-25T16:28:03.361Z,14.30
2022-10-25T16:30:37.459Z,13.93
2022-10-25T16:33:08.821Z,14.32
2022-10-25T16:35:38.085Z,15.35
2022-10-25T16:40:43.047Z,14.20
2022-10-25T16:43:14.449Z,14.07
2022-10-25T16:45:43.837Z,15.60
2022-10-25T16:48:13.193Z,14.15
2022-10-25T16:50:42.497Z,15.98
2022-10-25T16:53:14.575Z,13.25
2022-10-25T16:55:44.138Z,14.00
2022-10-25T16:58:13.495Z,14.55
2022-10-25T17:03:45.921Z,13.27
2022-10-25T17:06:36.335Z,13.87
2022-10-25T17:09:05.097Z,13.65
2022-10-25T17:11:34.439Z,13.88
2022-10-25T17:14:03.811Z,12.30
2022-10-25T17:16:34.713Z,13.07
2022-10-25T17:19:05.357Z,12.10
2022-10-25T17:21:36.655Z,12.82
2022-10-25T17:24:08.924Z,12.48
2022-10-25T17:26:38.933Z,11.80
2022-10-25T17:29:08.247Z,11.63
2022-10-25T17:31:37.662Z,12.30
2022-10-25T17:34:07.086Z,11.73
2022-10-25T17:36:36.423Z,11.43
2022-10-25T17:39:09.247Z,11.90
2022-10-25T17:44:07.531Z,13.00
2022-10-25T17:46:36.880Z,12.18
2022-10-25T17:49:07.281Z,12.18
2022-10-25T17:51:37.235Z,11.90
2022-10-25T17:54:06.541Z,13.00
2022-10-25T17:56:35.857Z,13.27
2022-10-25T17:59:07.131Z,12.32
2022-10-25T18:01:37.870Z,32.42
2022-10-25T18:04:07.196Z,26.63
2022-10-25T18:06:36.480Z,12.57
2022-10-25T18:09:06.292Z,12.15
2022-10-25T18:11:35.581Z,12.35
2022-10-25T18:14:05.506Z,11.23
2022-10-25T18:16:35.563Z,11.48
2022-10-25T18:19:06.758Z,10.20
2022-10-25T18:21:36.572Z,11.27
2022-10-25T18:24:07.591Z,13.73
2022-10-25T18:26:37.413Z,10.63
2022-10-25T18:29:06.842Z,10.70
2022-10-25T18:31:36.125Z,10.23
2022-10-25T18:34:06.235Z,11.48
2022-10-25T18:36:35.730Z,10.50
2022-10-25T18:39:05.459Z,10.30
2022-10-25T18:41:36.489Z,11.23
2022-10-25T18:44:05.898Z,10.82
2022-10-25T18:46:35.286Z,11.02
2022-10-25T18:49:04.689Z,10.52
2022-10-25T18:51:34.318Z,10.07
2022-10-25T18:54:04.698Z,12.48
2022-10-25T18:56:33.977Z,11.75
2022-10-25T18:59:03.256Z,11.40
2022-10-25T19:01:34.342Z,11.32
2022-10-25T19:04:05.472Z,11.45
2022-10-25T19:06:35.564Z,11.68
2022-10-25T19:09:05.340Z,10.35
2022-10-25T19:11:36.035Z,10.50
2022-10-25T19:14:06.571Z,11.10
2022-10-25T19:16:37.388Z,10.27
2022-10-25T19:19:08.476Z,13.00
2022-10-25T19:21:38.287Z,11.45
2022-10-25T19:24:08.078Z,10.43
2022-10-25T19:26:38.033Z,11.48
2022-10-25T19:29:07.556Z,10.85
2022-10-25T19:31:36.852Z,11.55
2022-10-25T19:34:06.120Z,10.65
2022-10-25T19:36:35.518Z,11.02
2022-10-25T19:39:06.032Z,11.25
2022-10-25T19:41:35.255Z,9.88
2022-10-25T19:44:04.532Z,11.30
2022-10-25T19:46:33.905Z,10.77
2022-10-25T19:49:03.350Z,10.95
2022-10-25T19:51:32.739Z,10.05
2022-10-25T19:54:02.053Z,10.32
2022-10-25T19:56:32.505Z,10.27
2022-10-25T19:59:01.807Z,10.40
2022-10-25T20:01:31.231Z,10.38
2022-10-25T20:04:01.293Z,10.60
2022-10-25T20:06:33.502Z,10.88
2022-10-25T20:09:04.241Z,9.25
2022-10-25T20:11:34.356Z,9.73
2022-10-25T20:14:04.189Z,10.05
2022-10-25T20:16:33.973Z,9.80
2022-10-25T20:19:04.529Z,10.98
2022-10-25T20:21:38.131Z,10.95
2022-10-25T20:24:09.594Z,11.00
2022-10-25T20:26:41.356Z,11.95
2022-10-25T20:29:20.348Z,11.13
2022-10-25T20:31:51.936Z,9.93
2022-10-25T20:34:22.413Z,12.00
2022-10-25T20:36:51.955Z,10.35
2022-10-25T20:39:21.215Z,10.73
2022-10-25T20:41:50.556Z,10.45
2022-10-25T20:44:19.865Z,12.23
2022-10-25T20:46:49.489Z,10.40
2022-10-25T20:49:18.768Z,12.23
2022-10-25T20:51:48.004Z,10.63
2022-10-25T20:54:17.374Z,10.48
2022-10-25T20:56:46.617Z,9.50
2022-10-25T20:59:15.920Z,10.43
2022-10-25T21:01:45.525Z,9.80
2022-10-25T21:04:25.743Z,9.85
2022-10-25T21:06:59.711Z,12.98
2022-10-25T21:09:28.952Z,9.93
2022-10-25T21:11:58.251Z,9.27
2022-10-25T21:14:27.650Z,9.00
2022-10-25T21:16:56.912Z,8.75
2022-10-25T21:19:26.170Z,9.68
2022-10-25T21:21:55.450Z,9.63
2022-10-25T21:24:24.744Z,8.50
2022-10-25T21:26:55.624Z,8.73
2022-10-25T21:29:24.981Z,8.68
2022-10-25T21:31:54.324Z,9.48
2022-10-25T21:34:23.584Z,9.85
2022-10-25T21:36:53.199Z,8.30
2022-10-25T21:39:25.399Z,9.88
2022-10-25T21:41:55.309Z,9.00
2022-10-25T21:44:24.648Z,8.80
2022-10-25T21:46:53.948Z,11.75
2022-10-25T21:49:23.214Z,9.88
2022-10-25T21:51:52.454Z,8.75
2022-10-25T21:54:23.672Z,8.48
2022-10-25T21:56:54.545Z,8.45
2022-10-25T21:59:26.863Z,9.07
2022-10-25T22:01:56.254Z,8.52
2022-10-25T22:04:26.500Z,9.48
2022-10-25T22:06:57.402Z,8.60
2022-10-25T22:09:26.871Z,8.80
2022-10-25T22:11:56.176Z,10.98
2022-10-25T22:14:25.436Z,9.85
2022-10-25T22:16:54.730Z,7.85
2022-10-25T22:19:24.797Z,9.98
2022-10-25T22:21:54.312Z,8.65
2022-10-25T22:24:23.671Z,7.90
2022-10-25T22:26:53.126Z,9.35
2022-10-25T22:29:22.430Z,9.23
2022-10-25T22:31:51.707Z,9.00
2022-10-25T22:34:20.971Z,8.93
2022-10-25T22:36:50.272Z,17.63
2022-10-25T22:39:19.506Z,12.20
2022-10-25T22:41:54.381Z,10.82
2022-10-25T22:44:23.667Z,10.75
2022-10-25T22:46:52.993Z,10.93
2022-10-25T22:49:23.152Z,12.85
2022-10-25T22:51:52.414Z,13.23
2022-10-25T22:54:21.668Z,13.07
2022-10-25T22:56:50.982Z,12.43
2022-10-25T22:59:20.276Z,14.23
2022-10-25T23:01:49.626Z,13.10
2022-10-25T23:04:20.142Z,13.35
2022-10-25T23:06:49.446Z,16.20
2022-10-25T23:09:18.765Z,14.80
2022-10-25T23:11:48.211Z,16.92
2022-10-25T23:14:17.690Z,16.23
2022-10-25T23:16:47.993Z,16.08
2022-10-25T23:19:17.225Z,15.93
2022-10-25T23:21:46.492Z,16.17
2022-10-25T23:24:15.804Z,16.23
2022-10-25T23:26:45.189Z,17.45
2022-10-25T23:29:14.861Z,16.63
2022-10-25T23:31:44.186Z,17.33
2022-10-25T23:34:13.477Z,18.00
2022-10-25T23:36:42.783Z,18.70
2022-10-25T23:39:13.209Z,20.27
2022-10-25T23:41:42.453Z,19.27
2022-10-25T23:44:12.058Z,19.50
2022-10-25T23:46:41.410Z,19.05
2022-10-25T23:49:10.670Z,17.00
2022-10-25T23:51:39.930Z,16.38
2022-10-25T23:54:11.065Z,15.73
2022-10-25T23:56:40.499Z,14.50
2022-10-25T23:59:09.863Z,14.35
